Dulan, China
Current Conditions -  °F | °C
As of 6:00 AM on Tuesday 23 Dec 2014 (Local Time) from ZLLL Reporting Station
Haze Haze  
Wind Chill: -5°   Ceiling: Unl
Heat Index:   Visibility: 3mi
Dew Point:   Wind: 7mph
Humidity: 72%   Direction: 340°NNW
Pressure: 30.09"   Gusts: NA
Location:  36.3°N, 98.1°E
Report Text: ZLLL 222200Z 34003MPS 5000 HZ NSC M14/M18 Q1019 NOSIG
Loading
Personal Weather Stations






























Interactive Weather Map New forecast layout! Learn more

10-Day Weather Forecast

Advertisements
Track Severe Weather on mobile